createdAt,value
2017-03-17T00:00:26.571Z,1012.27
2017-03-17T00:01:07.452Z,1012.24
2017-03-17T00:01:48.335Z,1012.25
2017-03-17T00:02:29.210Z,1012.22
2017-03-17T00:03:10.094Z,1012.17
2017-03-17T00:03:50.967Z,1012.21
2017-03-17T00:04:31.848Z,1012.17
2017-03-17T00:05:12.722Z,1012.17
2017-03-17T00:05:53.605Z,1012.17
2017-03-17T00:06:34.488Z,1012.13
2017-03-17T00:07:15.359Z,1012.08
2017-03-17T00:07:56.240Z,1012.08
2017-03-17T00:08:37.121Z,1012.01
2017-03-17T00:09:18.003Z,1012.07
2017-03-17T00:09:58.890Z,1012.09
2017-03-17T00:10:39.779Z,1012.06
2017-03-17T00:11:20.667Z,1012.03
2017-03-17T00:12:01.545Z,1012.02
2017-03-17T00:12:42.600Z,1012.02
2017-03-17T00:13:23.484Z,1011.98
2017-03-17T00:14:04.370Z,1011.95
2017-03-17T00:14:45.250Z,1011.91
2017-03-17T00:15:26.133Z,1011.9
2017-03-17T00:16:07.015Z,1011.86
2017-03-17T00:16:47.896Z,1011.92
2017-03-17T00:17:28.779Z,1011.87
2017-03-17T00:18:09.671Z,1011.9
2017-03-17T00:18:50.542Z,1011.88
2017-03-17T00:19:31.423Z,1011.88
2017-03-17T00:20:12.302Z,1011.85
2017-03-17T00:20:53.189Z,1011.84
2017-03-17T00:21:34.057Z,1011.84
2017-03-17T00:22:14.937Z,1011.84
2017-03-17T00:22:55.818Z,1011.84
2017-03-17T00:23:36.722Z,1011.82
2017-03-17T00:24:17.607Z,1011.83
2017-03-17T00:24:58.480Z,1011.75
2017-03-17T00:25:39.361Z,1011.76
2017-03-17T00:26:20.243Z,1011.75
2017-03-17T00:27:01.123Z,1011.72
2017-03-17T00:27:42.005Z,1011.7
2017-03-17T00:28:22.888Z,1011.7
2017-03-17T00:29:03.769Z,1011.67
2017-03-17T00:29:44.643Z,1011.71
2017-03-17T00:30:25.519Z,1011.62
2017-03-17T00:31:06.401Z,1011.63
2017-03-17T00:31:47.276Z,1011.59
2017-03-17T00:32:28.154Z,1011.57
2017-03-17T00:33:09.046Z,1011.57
2017-03-17T00:33:49.929Z,1011.56
2017-03-17T00:34:30.811Z,1011.53
2017-03-17T00:35:11.680Z,1011.5
2017-03-17T00:35:52.569Z,1011.51
2017-03-17T00:36:33.455Z,1011.45
2017-03-17T00:37:14.340Z,1011.46
2017-03-17T00:37:55.220Z,1011.46
2017-03-17T00:38:36.101Z,1011.44
2017-03-17T00:39:16.987Z,1011.44
2017-03-17T00:39:57.861Z,1011.41
2017-03-17T00:40:38.740Z,1011.4
2017-03-17T00:41:19.626Z,1011.41
2017-03-17T00:42:00.501Z,1011.34
2017-03-17T00:42:41.381Z,1011.39
2017-03-17T00:43:22.268Z,1011.35
2017-03-17T00:44:03.152Z,1011.34
2017-03-17T00:44:44.041Z,1011.33
2017-03-17T00:45:24.926Z,1011.33
2017-03-17T00:46:05.805Z,1011.35
2017-03-17T00:46:46.688Z,1011.29
2017-03-17T00:47:27.562Z,1011.33
2017-03-17T00:48:08.446Z,1011.28
2017-03-17T00:48:49.319Z,1011.3
2017-03-17T00:49:30.205Z,1011.28
2017-03-17T00:50:11.088Z,1011.26
2017-03-17T00:50:51.968Z,1011.26
2017-03-17T00:51:32.853Z,1011.23
2017-03-17T00:52:13.732Z,1011.16
2017-03-17T00:52:54.620Z,1011.18
2017-03-17T00:53:35.509Z,1011.15
2017-03-17T00:54:16.385Z,1011.15
2017-03-17T00:54:57.268Z,1011.07
2017-03-17T00:55:38.140Z,1011.05
2017-03-17T00:56:19.019Z,1011
2017-03-17T00:56:59.894Z,1010.97
2017-03-17T00:57:40.774Z,1010.97
2017-03-17T00:58:21.657Z,1010.93
2017-03-17T00:59:02.531Z,1010.87
2017-03-17T00:59:43.410Z,1010.87
2017-03-17T01:00:24.294Z,1010.83
2017-03-17T01:01:05.177Z,1010.85
2017-03-17T01:01:46.057Z,1010.84
2017-03-17T01:02:26.924Z,1010.84
2017-03-17T01:03:07.802Z,1010.81
2017-03-17T01:03:48.686Z,1010.82
2017-03-17T01:04:29.559Z,1010.87
2017-03-17T01:05:10.441Z,1010.83
2017-03-17T01:05:51.330Z,1010.85
2017-03-17T01:06:32.218Z,1010.81
2017-03-17T01:07:13.092Z,1010.84
2017-03-17T01:07:53.961Z,1010.78
2017-03-17T01:08:34.838Z,1010.77
2017-03-17T01:09:15.722Z,1010.76
2017-03-17T01:09:56.599Z,1010.8
2017-03-17T01:10:37.481Z,1010.76
2017-03-17T01:11:18.386Z,1010.78
2017-03-17T01:11:59.251Z,1010.76
2017-03-17T01:12:40.130Z,1010.72
2017-03-17T01:13:21.012Z,1010.72
2017-03-17T01:14:01.896Z,1010.68
2017-03-17T01:14:42.779Z,1010.67
2017-03-17T01:15:23.667Z,1010.64
2017-03-17T01:16:04.545Z,1010.6
2017-03-17T01:16:45.424Z,1010.6
2017-03-17T01:17:26.312Z,1010.55
2017-03-17T01:18:07.195Z,1010.54
2017-03-17T01:18:48.070Z,1010.53
2017-03-17T01:19:28.938Z,1010.49
2017-03-17T01:20:09.823Z,1010.52
2017-03-17T01:20:50.705Z,1010.48
2017-03-17T01:21:31.592Z,1010.45
2017-03-17T01:22:12.498Z,1010.44
2017-03-17T01:22:53.376Z,1010.43
2017-03-17T01:23:34.259Z,1010.4
2017-03-17T01:24:15.148Z,1010.39
2017-03-17T01:24:56.031Z,1010.36
2017-03-17T01:25:36.919Z,1010.32
2017-03-17T01:26:17.792Z,1010.31
2017-03-17T01:26:58.672Z,1010.28
2017-03-17T01:27:39.548Z,1010.28
2017-03-17T01:28:20.430Z,1010.23
2017-03-17T01:29:01.316Z,1010.19
2017-03-17T01:29:42.224Z,1010.2
2017-03-17T01:30:23.083Z,1010.18
2017-03-17T01:31:03.961Z,1010.12
2017-03-17T01:31:44.844Z,1010.14
2017-03-17T01:32:25.727Z,1010.09
2017-03-17T01:33:06.606Z,1010.03
2017-03-17T01:33:47.520Z,1010.07
2017-03-17T01:34:28.370Z,1010.03
2017-03-17T01:35:09.249Z,1009.98
2017-03-17T01:35:50.134Z,1009.98
2017-03-17T01:36:31.014Z,1009.98
2017-03-17T01:37:11.894Z,1009.96
2017-03-17T01:37:52.767Z,1009.95
2017-03-17T01:38:33.660Z,1009.91
2017-03-17T01:39:14.523Z,1009.89
2017-03-17T01:39:55.401Z,1009.87
2017-03-17T01:40:36.282Z,1009.89
2017-03-17T01:41:17.158Z,1009.85
2017-03-17T01:41:58.043Z,1009.81
2017-03-17T01:42:38.919Z,1009.81
2017-03-17T01:43:19.793Z,1009.79
2017-03-17T01:44:00.674Z,1009.77
2017-03-17T01:44:41.551Z,1009.78
2017-03-17T01:45:22.439Z,1009.75
2017-03-17T01:46:03.323Z,1009.72
2017-03-17T01:46:44.193Z,1009.68
2017-03-17T01:47:25.081Z,1009.73
2017-03-17T01:48:05.957Z,1009.72
2017-03-17T01:48:46.841Z,1009.74
2017-03-17T01:49:27.721Z,1009.72
2017-03-17T01:50:08.625Z,1009.72
2017-03-17T01:50:49.479Z,1009.75
2017-03-17T01:51:30.361Z,1009.73
2017-03-17T01:52:11.239Z,1009.73
2017-03-17T01:52:52.118Z,1009.69
2017-03-17T01:53:33.006Z,1009.67
2017-03-17T01:54:13.887Z,1009.68
2017-03-17T01:54:54.769Z,1009.64
2017-03-17T01:55:35.656Z,1009.66
2017-03-17T01:56:16.543Z,1009.64
2017-03-17T01:56:57.420Z,1009.66
2017-03-17T01:57:38.297Z,1009.64
2017-03-17T01:58:19.177Z,1009.61
2017-03-17T01:59:00.050Z,1009.64
2017-03-17T01:59:40.935Z,1009.57
2017-03-17T02:00:21.822Z,1009.57
2017-03-17T02:01:02.692Z,1009.53
2017-03-17T02:01:43.577Z,1009.53
2017-03-17T02:02:24.461Z,1009.54
2017-03-17T02:03:05.341Z,1009.53
2017-03-17T02:03:46.222Z,1009.51
2017-03-17T02:04:27.092Z,1009.51
2017-03-17T02:05:07.974Z,1009.55
2017-03-17T02:05:48.854Z,1009.58
2017-03-17T02:06:29.734Z,1009.51
2017-03-17T02:07:10.616Z,1009.5
2017-03-17T02:07:51.498Z,1009.5
2017-03-17T02:08:32.377Z,1009.5
2017-03-17T02:09:13.262Z,1009.45
2017-03-17T02:09:54.142Z,1009.47
2017-03-17T02:10:35.026Z,1009.42
2017-03-17T02:11:15.911Z,1009.42
2017-03-17T02:11:56.795Z,1009.43
2017-03-17T02:12:37.673Z,1009.41
2017-03-17T02:13:18.540Z,1009.43
2017-03-17T02:13:59.425Z,1009.39
2017-03-17T02:14:40.308Z,1009.41
2017-03-17T02:15:21.188Z,1009.41
2017-03-17T02:16:02.066Z,1009.36
2017-03-17T02:16:42.935Z,1009.34
2017-03-17T02:17:23.816Z,1009.35
2017-03-17T02:18:04.699Z,1009.33
2017-03-17T02:18:45.572Z,1009.33
2017-03-17T02:19:26.455Z,1009.3
2017-03-17T02:20:07.324Z,1009.29
2017-03-17T02:20:48.209Z,1009.3
2017-03-17T02:21:29.095Z,1009.29
2017-03-17T02:22:09.973Z,1009.32
2017-03-17T02:22:50.857Z,1009.31
2017-03-17T02:23:31.747Z,1009.3
2017-03-17T02:24:12.633Z,1009.24
2017-03-17T02:24:53.513Z,1009.26
2017-03-17T02:25:34.395Z,1009.27
2017-03-17T02:26:15.272Z,1009.28
2017-03-17T02:26:56.156Z,1009.26
2017-03-17T02:27:37.043Z,1009.28
2017-03-17T02:28:17.923Z,1009.31
2017-03-17T02:28:58.827Z,1009.27
2017-03-17T02:29:39.691Z,1009.24
2017-03-17T02:30:20.566Z,1009.19
2017-03-17T02:31:01.449Z,1009.21
2017-03-17T02:31:42.334Z,1009.18
2017-03-17T02:32:23.218Z,1009.16
2017-03-17T02:33:04.102Z,1009.16
2017-03-17T02:33:44.981Z,1009.13
2017-03-17T02:34:25.861Z,1009.1
2017-03-17T02:35:06.745Z,1009.07
2017-03-17T02:35:47.626Z,1009.09
2017-03-17T02:36:28.504Z,1009.03
2017-03-17T02:37:09.392Z,1009.05
2017-03-17T02:37:50.275Z,1009.02
2017-03-17T02:38:31.159Z,1008.99
2017-03-17T02:39:12.044Z,1008.96
2017-03-17T02:39:52.914Z,1008.96
2017-03-17T02:40:33.798Z,1008.97
2017-03-17T02:41:14.674Z,1009
2017-03-17T02:41:55.553Z,1008.98
2017-03-17T02:42:36.427Z,1009.02
2017-03-17T02:43:17.305Z,1008.96
2017-03-17T02:43:58.214Z,1009
2017-03-17T02:44:39.093Z,1009
2017-03-17T02:45:19.966Z,1009.04
2017-03-17T02:46:00.842Z,1009.01
2017-03-17T02:46:41.724Z,1009.02
2017-03-17T02:47:22.605Z,1008.99
2017-03-17T02:48:03.488Z,1008.98
2017-03-17T02:48:44.360Z,1009.01
2017-03-17T02:49:25.244Z,1008.95
2017-03-17T02:50:06.133Z,1008.98
2017-03-17T02:50:47.016Z,1008.93
2017-03-17T02:51:27.899Z,1008.92
2017-03-17T02:52:08.782Z,1008.98
2017-03-17T02:52:49.666Z,1008.96
2017-03-17T02:53:30.554Z,1008.94
2017-03-17T02:54:11.439Z,1008.87
2017-03-17T02:54:52.323Z,1008.84
2017-03-17T02:55:33.207Z,1008.84
2017-03-17T02:56:14.085Z,1008.82
2017-03-17T02:56:54.967Z,1008.78
2017-03-17T02:57:35.848Z,1008.76
2017-03-17T02:58:16.750Z,1008.74
2017-03-17T02:58:57.620Z,1008.72
2017-03-17T02:59:38.502Z,1008.69
2017-03-17T03:00:19.390Z,1008.69
2017-03-17T03:01:00.274Z,1008.66
2017-03-17T03:01:41.153Z,1008.65
2017-03-17T03:02:22.034Z,1008.65
2017-03-17T03:03:02.925Z,1008.63
2017-03-17T03:03:43.807Z,1008.62
2017-03-17T03:04:24.692Z,1008.59
2017-03-17T03:05:05.571Z,1008.59
2017-03-17T03:05:46.467Z,1008.64
2017-03-17T03:06:27.345Z,1008.61
2017-03-17T03:07:08.258Z,1008.59
2017-03-17T03:07:49.094Z,1008.55
2017-03-17T03:08:29.974Z,1008.6
2017-03-17T03:09:10.850Z,1008.57
2017-03-17T03:09:51.747Z,1008.54
2017-03-17T03:10:32.621Z,1008.49
2017-03-17T03:11:13.516Z,1008.54
2017-03-17T03:11:54.411Z,1008.54
2017-03-17T03:12:35.292Z,1008.54
2017-03-17T03:13:16.170Z,1008.52
2017-03-17T03:13:57.069Z,1008.54
2017-03-17T03:14:37.960Z,1008.53
2017-03-17T03:15:18.834Z,1008.51
2017-03-17T03:15:59.706Z,1008.5
2017-03-17T03:16:40.584Z,1008.48
2017-03-17T03:17:21.464Z,1008.49
2017-03-17T03:18:02.344Z,1008.48
2017-03-17T03:18:43.223Z,1008.46
2017-03-17T03:19:24.096Z,1008.46
2017-03-17T03:20:04.971Z,1008.43
2017-03-17T03:20:45.848Z,1008.45
2017-03-17T03:21:26.736Z,1008.45
2017-03-17T03:22:07.616Z,1008.41
2017-03-17T03:22:48.486Z,1008.39
2017-03-17T03:23:29.382Z,1008.39
2017-03-17T03:24:10.263Z,1008.41
2017-03-17T03:24:51.141Z,1008.41
2017-03-17T03:25:32.024Z,1008.41
2017-03-17T03:26:12.897Z,1008.45
2017-03-17T03:26:53.796Z,1008.4
2017-03-17T03:27:34.683Z,1008.38
2017-03-17T03:28:15.561Z,1008.38
2017-03-17T03:28:56.444Z,1008.37
2017-03-17T03:29:37.331Z,1008.34
2017-03-17T03:30:18.208Z,1008.36
2017-03-17T03:30:59.089Z,1008.35
2017-03-17T03:31:39.969Z,1008.34
2017-03-17T03:32:20.857Z,1008.33
2017-03-17T03:33:01.750Z,1008.34
2017-03-17T03:33:42.618Z,1008.34
2017-03-17T03:34:23.505Z,1008.31
2017-03-17T03:35:04.393Z,1008.3
2017-03-17T03:35:45.275Z,1008.27
2017-03-17T03:36:26.157Z,1008.24
2017-03-17T03:37:07.042Z,1008.25
2017-03-17T03:37:47.929Z,1008.25
2017-03-17T03:38:28.814Z,1008.2
2017-03-17T03:39:09.692Z,1008.19
2017-03-17T03:39:50.573Z,1008.17
2017-03-17T03:40:31.457Z,1008.16
2017-03-17T03:41:12.335Z,1008.15
2017-03-17T03:41:53.216Z,1008.14
2017-03-17T03:42:34.099Z,1008.14
2017-03-17T03:43:14.997Z,1008.15
2017-03-17T03:43:55.881Z,1008.13
2017-03-17T03:44:36.752Z,1008.13
2017-03-17T03:45:17.639Z,1008.13
2017-03-17T03:45:58.527Z,1008.17
2017-03-17T03:46:39.414Z,1008.06
2017-03-17T03:47:20.289Z,1008.09
2017-03-17T03:48:01.170Z,1008.1
2017-03-17T03:48:42.059Z,1008.07
2017-03-17T03:49:22.942Z,1008.01
2017-03-17T03:50:03.820Z,1008.05
2017-03-17T03:50:44.699Z,1007.99
2017-03-17T03:51:25.585Z,1007.97
2017-03-17T03:52:06.467Z,1008
2017-03-17T03:52:47.342Z,1007.99
2017-03-17T03:53:28.221Z,1007.99
2017-03-17T03:54:09.115Z,1008.04
2017-03-17T03:54:50.002Z,1007.99
2017-03-17T03:55:30.876Z,1007.95
2017-03-17T03:56:11.757Z,1007.98
2017-03-17T03:56:52.637Z,1007.94
2017-03-17T03:57:33.523Z,1007.97
2017-03-17T03:58:14.402Z,1007.92
2017-03-17T03:58:55.280Z,1007.9
2017-03-17T03:59:36.165Z,1007.9
2017-03-17T04:00:17.053Z,1007.94
2017-03-17T04:00:57.937Z,1007.87
2017-03-17T04:01:38.811Z,1007.85
2017-03-17T04:02:19.694Z,1007.88
2017-03-17T04:03:00.589Z,1007.83
2017-03-17T04:03:41.464Z,1007.8
2017-03-17T04:04:22.338Z,1007.82
2017-03-17T04:05:03.212Z,1007.81
2017-03-17T04:05:44.095Z,1007.75
2017-03-17T04:06:24.981Z,1007.77
2017-03-17T04:07:05.869Z,1007.76
2017-03-17T04:07:46.749Z,1007.76
2017-03-17T04:08:27.635Z,1007.72
2017-03-17T04:09:08.520Z,1007.69
2017-03-17T04:09:49.400Z,1007.74
2017-03-17T04:10:30.276Z,1007.67
2017-03-17T04:11:11.161Z,1007.68
2017-03-17T04:11:52.052Z,1007.65
2017-03-17T04:12:32.933Z,1007.61
2017-03-17T04:13:13.810Z,1007.66
2017-03-17T04:13:54.685Z,1007.64
2017-03-17T04:14:35.570Z,1007.63
2017-03-17T04:15:16.456Z,1007.65
2017-03-17T04:15:57.332Z,1007.63
2017-03-17T04:16:38.211Z,1007.61
2017-03-17T04:17:19.102Z,1007.63
2017-03-17T04:17:59.989Z,1007.62
2017-03-17T04:18:40.867Z,1007.61
2017-03-17T04:19:21.749Z,1007.61
2017-03-17T04:20:02.632Z,1007.63
2017-03-17T04:20:43.516Z,1007.63
2017-03-17T04:21:24.397Z,1007.64
2017-03-17T04:22:05.281Z,1007.63
2017-03-17T04:22:46.170Z,1007.6
2017-03-17T04:23:27.057Z,1007.6
2017-03-17T04:24:07.929Z,1007.55
2017-03-17T04:24:48.809Z,1007.54
2017-03-17T04:25:29.707Z,1007.53
2017-03-17T04:26:10.606Z,1007.53
2017-03-17T04:26:51.465Z,1007.54
2017-03-17T04:27:32.340Z,1007.51
2017-03-17T04:28:13.228Z,1007.49
2017-03-17T04:28:54.113Z,1007.49
2017-03-17T04:29:34.987Z,1007.53
2017-03-17T04:30:15.862Z,1007.51
2017-03-17T04:30:56.739Z,1007.51
2017-03-17T04:31:37.630Z,1007.51
2017-03-17T04:32:18.522Z,1007.5
2017-03-17T04:32:59.388Z,1007.53
2017-03-17T04:33:40.276Z,1007.46
2017-03-17T04:34:21.168Z,1007.48
2017-03-17T04:35:02.057Z,1007.45
2017-03-17T04:35:42.915Z,1007.5
2017-03-17T04:36:23.786Z,1007.52
2017-03-17T04:37:04.670Z,1007.47
2017-03-17T04:37:45.558Z,1007.46
2017-03-17T04:38:26.449Z,1007.5
2017-03-17T04:39:07.311Z,1007.46
2017-03-17T04:39:48.182Z,1007.46
2017-03-17T04:40:29.060Z,1007.47
2017-03-17T04:41:09.937Z,1007.49
2017-03-17T04:41:50.825Z,1007.46
2017-03-17T04:42:31.699Z,1007.45
2017-03-17T04:43:12.627Z,1007.43
2017-03-17T04:43:53.515Z,1007.43
2017-03-17T04:44:34.377Z,1007.44
2017-03-17T04:45:15.259Z,1007.42
2017-03-17T04:45:56.143Z,1007.41
2017-03-17T04:46:37.034Z,1007.38
2017-03-17T04:47:17.910Z,1007.43
2017-03-17T04:47:58.798Z,1007.36
2017-03-17T04:48:39.693Z,1007.34
2017-03-17T04:49:20.568Z,1007.35
2017-03-17T04:50:01.448Z,1007.37
2017-03-17T04:50:42.325Z,1007.33
2017-03-17T04:51:23.213Z,1007.36
2017-03-17T04:52:04.102Z,1007.36
2017-03-17T04:52:44.979Z,1007.31
2017-03-17T04:53:25.863Z,1007.32
2017-03-17T04:54:06.759Z,1007.32
2017-03-17T04:54:47.645Z,1007.32
2017-03-17T04:55:28.520Z,1007.26
2017-03-17T04:56:09.401Z,1007.29
2017-03-17T04:56:50.316Z,1007.28
2017-03-17T04:57:31.190Z,1007.31
2017-03-17T04:58:12.074Z,1007.27
2017-03-17T04:58:52.976Z,1007.29
2017-03-17T04:59:33.853Z,1007.27
2017-03-17T05:00:14.722Z,1007.28
2017-03-17T05:00:55.617Z,1007.27
2017-03-17T05:01:36.506Z,1007.29
2017-03-17T05:02:17.386Z,1007.29
2017-03-17T05:02:58.265Z,1007.26
2017-03-17T05:03:39.146Z,1007.26
2017-03-17T05:04:20.046Z,1007.25
2017-03-17T05:05:00.927Z,1007.27
2017-03-17T05:05:41.806Z,1007.24
2017-03-17T05:06:22.694Z,1007.25
2017-03-17T05:07:03.582Z,1007.23
2017-03-17T05:07:44.459Z,1007.25
2017-03-17T05:08:25.331Z,1007.21
2017-03-17T05:09:06.217Z,1007.21
2017-03-17T05:09:47.103Z,1007.23
2017-03-17T05:10:27.977Z,1007.22
2017-03-17T05:11:08.851Z,1007.25
2017-03-17T05:11:49.711Z,1007.18
2017-03-17T05:12:30.597Z,1007.21
2017-03-17T05:13:11.486Z,1007.21
2017-03-17T05:13:52.382Z,1007.22
2017-03-17T05:14:33.253Z,1007.24
2017-03-17T05:15:14.130Z,1007.26
2017-03-17T05:15:55.020Z,1007.29
2017-03-17T05:16:35.912Z,1007.25
2017-03-17T05:17:16.787Z,1007.23
2017-03-17T05:17:57.665Z,1007.22
2017-03-17T05:18:38.551Z,1007.25
2017-03-17T05:19:19.434Z,1007.2
2017-03-17T05:20:00.313Z,1007.24
2017-03-17T05:20:41.193Z,1007.19
2017-03-17T05:21:22.084Z,1007.23
2017-03-17T05:22:02.963Z,1007.22
2017-03-17T05:22:43.846Z,1007.18
2017-03-17T05:23:24.717Z,1007.23
2017-03-17T05:24:05.595Z,1007.21
2017-03-17T05:24:46.484Z,1007.2
2017-03-17T05:25:27.373Z,1007.24
2017-03-17T05:26:08.244Z,1007.2
2017-03-17T05:26:49.124Z,1007.24
2017-03-17T05:27:30.007Z,1007.23
2017-03-17T05:28:10.892Z,1007.22
2017-03-17T05:28:51.770Z,1007.25
2017-03-17T05:29:32.651Z,1007.22
2017-03-17T05:30:13.533Z,1007.22
2017-03-17T05:30:54.436Z,1007.26
2017-03-17T05:31:35.312Z,1007.24
2017-03-17T05:32:16.191Z,1007.25
2017-03-17T05:32:57.078Z,1007.29
2017-03-17T05:33:37.969Z,1007.29
2017-03-17T05:34:18.838Z,1007.3
2017-03-17T05:34:59.718Z,1007.27
2017-03-17T05:35:40.584Z,1007.26
2017-03-17T05:36:21.471Z,1007.22
2017-03-17T05:37:02.359Z,1007.25
2017-03-17T05:37:43.221Z,1007.25
2017-03-17T05:38:24.115Z,1007.26
2017-03-17T05:39:04.996Z,1007.27
2017-03-17T05:39:45.878Z,1007.22
2017-03-17T05:40:26.757Z,1007.2
2017-03-17T05:41:07.625Z,1007.16
2017-03-17T05:41:48.505Z,1007.2
2017-03-17T05:42:29.395Z,1007.22
2017-03-17T05:43:10.285Z,1007.19
2017-03-17T05:43:51.172Z,1007.21
2017-03-17T05:44:32.068Z,1007.18
2017-03-17T05:45:12.943Z,1007.16
2017-03-17T05:45:53.840Z,1007.19
2017-03-17T05:46:34.723Z,1007.18
2017-03-17T05:47:15.604Z,1007.19
2017-03-17T05:47:56.492Z,1007.18
2017-03-17T05:48:37.367Z,1007.2
2017-03-17T05:49:18.247Z,1007.2
2017-03-17T05:49:59.135Z,1007.16
2017-03-17T05:50:40.014Z,1007.12
2017-03-17T05:51:20.897Z,1007.14
2017-03-17T05:52:01.778Z,1007.14
2017-03-17T05:52:42.666Z,1007.1
2017-03-17T05:53:23.543Z,1007.15
2017-03-17T05:54:04.425Z,1007.09
2017-03-17T05:54:45.312Z,1007.06
2017-03-17T05:55:26.196Z,1007.08
2017-03-17T05:56:07.075Z,1007.05
2017-03-17T05:56:47.958Z,1007.04
2017-03-17T05:57:28.844Z,1007.05
2017-03-17T05:58:09.729Z,1007.04
2017-03-17T05:58:50.624Z,1007.03
2017-03-17T05:59:31.504Z,1007.01
2017-03-17T06:00:12.385Z,1006.98
2017-03-17T06:00:53.270Z,1006.96
2017-03-17T06:01:34.158Z,1006.97
2017-03-17T06:02:15.035Z,1006.98
2017-03-17T06:02:55.913Z,1006.98
2017-03-17T06:03:36.802Z,1006.96
2017-03-17T06:04:17.682Z,1006.97
2017-03-17T06:04:58.557Z,1006.99
2017-03-17T06:05:39.449Z,1006.94
2017-03-17T06:06:20.338Z,1006.95
2017-03-17T06:07:01.222Z,1006.98
2017-03-17T06:07:42.092Z,1006.84
2017-03-17T06:08:22.978Z,1006.84
2017-03-17T06:09:03.867Z,1006.86
2017-03-17T06:09:44.755Z,1006.79
2017-03-17T06:10:25.649Z,1006.85
2017-03-17T06:11:06.512Z,1006.84
2017-03-17T06:11:47.394Z,1006.85
2017-03-17T06:12:28.270Z,1006.94
2017-03-17T06:13:09.152Z,1006.9
2017-03-17T06:13:50.033Z,1006.92
2017-03-17T06:14:30.929Z,1006.85
2017-03-17T06:15:11.807Z,1006.78
2017-03-17T06:15:52.690Z,1006.78
2017-03-17T06:16:33.581Z,1006.8
2017-03-17T06:17:14.462Z,1006.79
2017-03-17T06:17:55.345Z,1006.83
2017-03-17T06:18:36.231Z,1006.88
2017-03-17T06:19:17.108Z,1006.93
2017-03-17T06:19:57.998Z,1006.9
2017-03-17T06:20:38.890Z,1006.84
2017-03-17T06:21:19.767Z,1006.9
2017-03-17T06:22:00.643Z,1006.91
2017-03-17T06:22:41.532Z,1006.93
2017-03-17T06:23:22.411Z,1006.88
2017-03-17T06:24:03.291Z,1006.86
2017-03-17T06:24:44.182Z,1006.83
2017-03-17T06:25:25.069Z,1006.84
2017-03-17T06:26:05.942Z,1006.85
2017-03-17T06:26:46.819Z,1006.87
2017-03-17T06:27:27.706Z,1006.88
2017-03-17T06:28:08.599Z,1006.92
2017-03-17T06:28:49.489Z,1006.92
2017-03-17T06:29:30.371Z,1006.94
2017-03-17T06:30:11.254Z,1006.88
2017-03-17T06:30:52.135Z,1006.96
2017-03-17T06:31:33.023Z,1006.92
2017-03-17T06:32:13.904Z,1006.93
2017-03-17T06:32:54.786Z,1006.92
2017-03-17T06:33:35.673Z,1006.92
2017-03-17T06:34:16.551Z,1006.95
2017-03-17T06:34:57.559Z,1006.96
2017-03-17T06:35:38.401Z,1006.94
2017-03-17T06:36:19.283Z,1006.94
2017-03-17T06:37:00.178Z,1006.96
2017-03-17T06:37:41.052Z,1006.99
2017-03-17T06:38:21.926Z,1006.93
2017-03-17T06:39:02.811Z,1006.93
2017-03-17T06:39:43.715Z,1006.92
2017-03-17T06:40:24.600Z,1006.98
2017-03-17T06:41:05.492Z,1006.98
2017-03-17T06:41:46.373Z,1006.93
2017-03-17T06:42:27.253Z,1006.98
2017-03-17T06:43:08.139Z,1006.93
2017-03-17T06:43:49.023Z,1006.94
2017-03-17T06:44:29.908Z,1007
2017-03-17T06:45:10.794Z,1006.97
2017-03-17T06:45:51.683Z,1006.97
2017-03-17T06:46:32.565Z,1006.93
2017-03-17T06:47:13.456Z,1006.98
2017-03-17T06:47:54.338Z,1007.05
2017-03-17T06:48:35.217Z,1007.01
2017-03-17T06:49:16.101Z,1007.02
2017-03-17T06:49:56.985Z,1007.03
2017-03-17T06:50:37.866Z,1007.04
2017-03-17T06:51:18.746Z,1007.03
2017-03-17T06:51:59.632Z,1007.05
2017-03-17T06:52:40.518Z,1007
2017-03-17T06:53:21.402Z,1007
2017-03-17T06:54:02.288Z,1007
2017-03-17T06:54:43.176Z,1007.03
2017-03-17T06:55:24.067Z,1007.01
2017-03-17T06:56:04.950Z,1007.02
2017-03-17T06:56:45.846Z,1006.99
2017-03-17T06:57:26.729Z,1007.02
2017-03-17T06:58:07.601Z,1007.02
2017-03-17T06:58:48.515Z,1007.02
2017-03-17T06:59:29.368Z,1007
2017-03-17T07:00:10.255Z,1007.04
2017-03-17T07:00:51.144Z,1007.02
2017-03-17T07:01:32.030Z,1007.02
2017-03-17T07:02:12.915Z,1007.04
2017-03-17T07:02:53.822Z,1006.99
2017-03-17T07:03:34.681Z,1006.95
2017-03-17T07:04:15.559Z,1006.93
2017-03-17T07:04:56.461Z,1006.98
2017-03-17T07:05:37.342Z,1006.95
2017-03-17T07:06:18.234Z,1006.89
2017-03-17T07:06:59.119Z,1006.93
2017-03-17T07:07:40.009Z,1006.89
2017-03-17T07:08:20.885Z,1006.87
2017-03-17T07:09:01.758Z,1006.84
2017-03-17T07:09:42.647Z,1006.9
2017-03-17T07:10:23.541Z,1006.86
2017-03-17T07:11:04.422Z,1006.89
2017-03-17T07:11:45.310Z,1006.9
2017-03-17T07:12:26.245Z,1006.92
2017-03-17T07:13:07.132Z,1006.91
2017-03-17T07:13:48.017Z,1006.99
2017-03-17T07:14:28.903Z,1006.93
2017-03-17T07:15:09.785Z,1006.91
2017-03-17T07:15:50.659Z,1006.93
2017-03-17T07:16:31.546Z,1006.91
2017-03-17T07:17:12.428Z,1006.9
2017-03-17T07:17:53.315Z,1006.9
2017-03-17T07:18:34.193Z,1006.84
2017-03-17T07:19:15.087Z,1006.86
2017-03-17T07:19:55.973Z,1006.87
2017-03-17T07:20:36.855Z,1006.87
2017-03-17T07:21:17.740Z,1006.87
2017-03-17T07:21:58.620Z,1006.87
2017-03-17T07:22:39.504Z,1006.97
2017-03-17T07:23:20.385Z,1006.98
2017-03-17T07:24:01.265Z,1006.99
2017-03-17T07:24:42.163Z,1006.95
2017-03-17T07:25:23.049Z,1007.01
2017-03-17T07:26:03.936Z,1006.99
2017-03-17T07:26:44.821Z,1007.02
2017-03-17T07:27:25.701Z,1006.98
2017-03-17T07:28:06.585Z,1007.02
2017-03-17T07:28:47.471Z,1007.02
2017-03-17T07:29:28.348Z,1007
2017-03-17T07:30:09.233Z,1007.07
2017-03-17T07:30:50.113Z,1007.02
2017-03-17T07:31:30.998Z,1007.03
2017-03-17T07:32:11.886Z,1007.03
2017-03-17T07:32:52.771Z,1007.07
2017-03-17T07:33:33.650Z,1007.03
2017-03-17T07:34:14.540Z,1007
2017-03-17T07:34:55.425Z,1006.93
2017-03-17T07:35:36.302Z,1006.9
2017-03-17T07:36:17.184Z,1006.95
2017-03-17T07:36:58.071Z,1006.97
2017-03-17T07:37:38.965Z,1007.02
2017-03-17T07:38:19.852Z,1007.03
2017-03-17T07:39:00.741Z,1006.98
2017-03-17T07:39:41.624Z,1007.03
2017-03-17T07:40:22.512Z,1007.07
2017-03-17T07:41:03.398Z,1007.07
2017-03-17T07:41:44.276Z,1007.02
2017-03-17T07:42:25.159Z,1007.01
2017-03-17T07:43:06.040Z,1006.99
2017-03-17T07:43:46.923Z,1007.02
2017-03-17T07:44:27.815Z,1007
2017-03-17T07:45:08.704Z,1006.96
2017-03-17T07:45:49.586Z,1006.98
2017-03-17T07:46:30.463Z,1006.92
2017-03-17T07:47:11.345Z,1006.88
2017-03-17T07:47:52.227Z,1006.81
2017-03-17T07:48:33.117Z,1006.79
2017-03-17T07:49:14.000Z,1006.79
2017-03-17T07:49:54.878Z,1006.77
2017-03-17T07:50:35.761Z,1006.73
2017-03-17T07:51:16.660Z,1006.63
2017-03-17T07:51:57.540Z,1006.64
2017-03-17T07:52:38.427Z,1006.67
2017-03-17T07:53:19.312Z,1006.7
2017-03-17T07:54:00.198Z,1006.68
2017-03-17T07:54:41.078Z,1006.65
2017-03-17T07:55:21.959Z,1006.6
2017-03-17T07:56:02.835Z,1006.58
2017-03-17T07:56:43.727Z,1006.55
2017-03-17T07:57:24.594Z,1006.6
2017-03-17T07:58:05.474Z,1006.57
2017-03-17T07:58:46.348Z,1006.53
2017-03-17T07:59:27.228Z,1006.54
2017-03-17T08:00:08.112Z,1006.51
2017-03-17T08:00:48.987Z,1006.58
2017-03-17T08:01:29.865Z,1006.56
2017-03-17T08:02:10.753Z,1006.58
2017-03-17T08:02:51.630Z,1006.61
2017-03-17T08:03:32.511Z,1006.54
2017-03-17T08:04:13.401Z,1006.55
2017-03-17T08:04:54.285Z,1006.56
2017-03-17T08:05:35.158Z,1006.51
2017-03-17T08:06:16.034Z,1006.58
2017-03-17T08:06:56.910Z,1006.57
2017-03-17T08:07:37.821Z,1006.56
2017-03-17T08:08:18.700Z,1006.58
2017-03-17T08:08:59.580Z,1006.6
2017-03-17T08:09:40.457Z,1006.62
2017-03-17T08:10:21.345Z,1006.58
2017-03-17T08:11:02.229Z,1006.63
2017-03-17T08:11:43.116Z,1006.55
2017-03-17T08:12:24.005Z,1006.59
2017-03-17T08:13:04.892Z,1006.61
2017-03-17T08:13:45.783Z,1006.64
2017-03-17T08:14:26.657Z,1006.64
2017-03-17T08:15:07.541Z,1006.67
2017-03-17T08:15:48.425Z,1006.7
2017-03-17T08:16:29.312Z,1006.63